Time;durP1;ratioP1;P1;durP2;ratioP2;P2;SDS_P1;SDS_P2;PMS_P1;PMS_P2;Temp;Humidity;BMP_temperature;BMP_pressure;BME280_temperature;BME280_humidity;BME280_pressure;Samples;Min_cycle;Max_cycle;Signal;HPM_P1;HPM_P2
2022/07/15 00:00:45;;;;;;;17.92;10.60;;;;;;;17.47;74.77;98472.56;5004009;28;20582;-89
2022/07/15 00:03:11;;;;;;;19.55;10.90;;;;;;;17.54;74.46;98487.22;5020588;28;20402;-91
2022/07/15 00:05:41;;;;;;;20.73;10.40;;;;;;;17.59;73.97;98484.13;4987665;28;20068;-89
2022/07/15 00:08:08;;;;;;;23.17;10.27;;;;;;;17.55;74.17;98477.78;5000425;28;20042;-87
2022/07/15 00:10:34;;;;;;;29.95;11.65;;;;;;;17.40;74.35;98453.94;4994936;28;20053;-88
2022/07/15 00:13:02;;;;;;;18.98;10.23;;;;;;;17.56;74.23;98482.13;4986409;28;20065;-87
2022/07/15 00:15:32;;;;;;;19.77;9.82;;;;;;;17.53;73.59;98474.59;4996858;28;20129;-87
2022/07/15 00:18:02;;;;;;;20.27;10.27;;;;;;;17.41;73.86;98458.28;5013205;28;20046;-88
2022/07/15 00:20:40;;;;;;;20.90;9.30;;;;;;;17.44;73.74;98463.03;5013340;28;20046;-92
2022/07/15 00:23:07;;;;;;;15.75;9.65;;;;;;;17.44;73.52;98474.09;5013186;28;20049;-91
2022/07/15 00:25:35;;;;;;;18.65;9.60;;;;;;;17.59;73.42;98499.91;4996867;28;20034;-89
2022/07/15 00:28:05;;;;;;;;;;;;;;;17.68;73.22;98517.00;5014172;28;20062;-88
2022/07/15 00:30:33;;;;;;;22.45;10.02;;;;;;;17.33;73.11;98462.94;4998881;28;20024;-92
2022/07/15 00:33:00;;;;;;;23.70;9.93;;;;;;;17.30;73.30;98460.94;4979779;28;20038;-90
2022/07/15 00:35:29;;;;;;;18.65;9.02;;;;;;;17.48;73.07;98497.06;5015305;28;20073;-89
2022/07/15 00:37:55;;;;;;;15.55;8.57;;;;;;;17.31;73.47;98464.50;5016537;28;20561;-92
2022/07/15 00:40:23;;;;;;;16.10;8.68;;;;;;;17.46;73.23;98480.06;4984178;28;20073;-90
2022/07/15 00:42:50;;;;;;;13.85;8.30;;;;;;;17.34;72.47;98455.44;4983689;28;20046;-88
2022/07/15 00:45:17;;;;;;;;;;;;;;;17.72;72.91;98520.59;5016553;28;20077;-92
2022/07/15 00:47:46;;;;;;;14.52;7.85;;;;;;;17.68;72.34;98507.88;5019625;28;19917;-92
2022/07/15 00:50:14;;;;;;;21.25;8.40;;;;;;;17.58;72.01;98485.31;5019589;28;20126;-91
2022/07/15 00:52:44;;;;;;;17.30;8.77;;;;;;;17.48;72.14;98469.44;5003252;28;20052;-92
2022/07/15 00:55:11;;;;;;;17.60;8.05;;;;;;;17.63;71.96;98488.91;5000318;28;20083;-91
2022/07/15 00:57:44;;;;;;;13.10;7.85;;;;;;;17.49;71.64;98470.22;5017130;28;20037;-91
2022/07/15 01:00:12;;;;;;;15.23;8.20;;;;;;;17.78;72.08;98518.28;4984542;28;20050;-90
2022/07/15 01:02:43;;;;;;;15.80;8.40;;;;;;;17.71;71.72;98507.13;5000714;28;20037;-90
2022/07/15 01:05:11;;;;;;;16.20;8.35;;;;;;;17.60;71.61;98494.00;5008643;28;20565;-92
2022/07/15 01:07:41;;;;;;;23.77;8.68;;;;;;;17.84;70.98;98522.28;5033469;28;20041;-92
2022/07/15 01:10:08;;;;;;;13.48;7.78;;;;;;;17.69;71.26;98502.00;5019439;28;20045;-90
2022/07/15 01:12:37;;;;;;;18.27;7.95;;;;;;;17.89;71.01;98530.25;5019012;28;20128;-88
2022/07/15 01:15:09;;;;;;;14.73;8.13;;;;;;;17.62;71.06;98501.94;5017898;28;20048;-89
2022/07/15 01:17:36;;;;;;;21.10;8.20;;;;;;;17.84;71.69;98539.66;5000963;28;20591;-92
2022/07/15 01:20:05;;;;;;;15.18;9.10;;;;;;;17.58;71.61;98510.19;5002905;28;20128;-89
2022/07/15 01:22:38;;;;;;;17.52;8.95;;;;;;;17.77;71.36;98542.38;5003497;28;20095;-89
2022/07/15 01:25:04;;;;;;;;;;;;;;;17.80;71.51;98554.63;5036794;28;20037;-90
2022/07/15 01:27:32;;;;;;;18.45;8.65;;;;;;;17.46;72.05;98504.91;5018484;28;19983;-90
2022/07/15 01:30:00;;;;;;;19.33;8.65;;;;;;;17.54;72.17;98531.44;5001017;28;20037;-90
2022/07/15 01:32:29;;;;;;;13.82;8.90;;;;;;;17.61;72.78;98550.88;5003069;28;20037;-92
2022/07/15 01:34:56;;;;;;;15.73;8.57;;;;;;;17.32;72.40;98510.28;5018116;28;20045;-90
2022/07/15 01:37:25;;;;;;;17.13;8.95;;;;;;;17.22;72.76;98491.59;4985264;28;20047;-89
2022/07/15 01:39:55;;;;;;;16.52;9.50;;;;;;;17.69;73.09;98567.53;4984216;28;20406;-90
2022/07/15 01:42:21;;;;;;;14.65;9.32;;;;;;;17.45;73.34;98530.97;5012901;28;20064;-91
2022/07/15 01:44:48;;;;;;;19.13;9.23;;;;;;;17.45;73.25;98513.56;4996311;28;20042;-91
2022/07/15 01:47:15;;;;;;;17.67;9.52;;;;;;;17.30;72.96;98493.28;4981586;28;20060;-90
2022/07/15 01:49:43;;;;;;;15.63;9.25;;;;;;;17.40;73.72;98509.19;4998747;28;20052;-89
2022/07/15 01:52:12;;;;;;;17.23;8.85;;;;;;;17.69;73.08;98545.44;4999120;28;20134;-88
2022/07/15 01:54:41;;;;;;;23.63;9.68;;;;;;;17.66;73.56;98548.94;4997703;28;20136;-89
2022/07/15 01:57:09;;;;;;;26.48;9.65;;;;;;;17.66;73.91;98551.72;4996518;28;20046;-89
2022/07/15 01:59:45;;;;;;;23.20;9.20;;;;;;;17.54;74.32;98534.19;4996785;28;20191;-88
2022/07/15 02:02:16;;;;;;;20.33;9.23;;;;;;;17.66;74.38;98548.94;5013038;28;20083;-92
2022/07/15 02:04:42;;;;;;;20.98;9.43;;;;;;;17.26;74.29;98498.78;5014801;28;20052;-90
2022/07/15 02:07:08;;;;;;;21.00;10.13;;;;;;;17.69;74.49;98559.25;4998053;28;20038;-91
2022/07/15 02:09:38;;;;;;;19.75;8.93;;;;;;;17.47;74.60;98534.13;5014781;28;20054;-89
2022/07/15 02:12:06;;;;;;;30.75;9.82;;;;;;;17.36;74.74;98524.94;4982494;28;20143;-89
2022/07/15 02:14:38;;;;;;;24.48;9.63;;;;;;;17.55;75.19;98543.31;4999051;28;20042;-91
2022/07/15 02:17:05;;;;;;;16.38;8.90;;;;;;;17.60;74.74;98560.31;5002859;28;20026;-89
2022/07/15 02:19:39;;;;;;;16.00;9.48;;;;;;;17.38;74.74;98530.88;5009238;28;20042;-90
2022/07/15 02:22:06;;;;;;;23.60;8.80;;;;;;;17.65;74.48;98556.44;5029236;28;20038;-89
2022/07/15 02:24:33;;;;;;;19.48;9.15;;;;;;;17.44;74.25;98545.13;5003151;28;20052;-90
2022/07/15 02:26:59;;;;;;;16.70;9.20;;;;;;;17.55;74.96;98560.69;4981342;28;20045;-92
2022/07/15 02:29:27;;;;;;;20.13;9.10;;;;;;;17.50;74.31;98549.97;5014323;28;20525;-90
2022/07/15 02:31:53;;;;;;;21.80;9.13;;;;;;;17.49;74.54;98559.44;4981331;28;20169;-89
2022/07/15 02:34:22;;;;;;;25.17;9.65;;;;;;;17.42;74.85;98564.88;5012831;28;20030;-90
2022/07/15 02:36:48;;;;;;;19.92;11.38;;;;;;;17.56;75.13;98583.59;5013848;28;20041;-92
2022/07/15 02:39:15;;;;;;;29.80;10.55;;;;;;;17.33;75.36;98565.16;5012878;28;20048;-89
2022/07/15 02:41:42;;;;;;;25.92;10.52;;;;;;;17.11;75.70;98533.69;4996736;28;20042;-91
2022/07/15 02:44:11;;;;;;;18.00;9.25;;;;;;;17.06;75.98;98536.03;5039416;28;20461;-90
2022/07/15 02:46:40;;;;;;;14.68;9.55;;;;;;;16.99;75.68;98520.16;5007252;28;20093;-90
2022/07/15 02:49:06;;;;;;;;;;;;;;;17.52;75.82;98602.88;5021832;28;20041;-90
2022/07/15 02:51:34;;;;;;;18.38;9.90;;;;;;;17.34;75.79;98575.03;5017470;28;19986;-89
2022/07/15 02:54:01;;;;;;;20.10;10.10;;;;;;;17.34;75.54;98565.94;5001070;28;20068;-90
2022/07/15 02:56:29;;;;;;;19.40;9.43;;;;;;;17.19;75.57;98555.91;5001421;28;20037;-89
2022/07/15 02:58:55;;;;;;;17.23;10.25;;;;;;;17.31;75.08;98597.09;4981495;28;20034;-89
2022/07/15 03:01:21;;;;;;;22.38;9.48;;;;;;;16.93;75.22;98543.75;4997485;28;20530;-89
2022/07/15 03:03:53;;;;;;;15.15;8.77;;;;;;;17.38;75.14;98609.03;5016736;28;20396;-89
2022/07/15 03:08:53;;;;;;;16.58;8.82;;;;;;;17.49;74.23;98609.16;5034811;28;20419;-90
2022/07/15 03:11:21;;;;;;;23.35;8.38;;;;;;;17.09;73.80;98533.31;5017371;28;20584;-89
2022/07/15 03:13:48;;;;;;;12.40;7.55;;;;;;;17.51;73.36;98584.69;4983484;28;20048;-90
2022/07/15 03:16:15;;;;;;;21.67;7.95;;;;;;;17.45;73.04;98579.88;5000172;28;20041;-93
2022/07/15 03:18:45;;;;;;;17.05;7.68;;;;;;;17.18;72.93;98554.31;5000091;28;20037;-89
2022/07/15 03:21:12;;;;;;;;;;;;;;;17.68;73.01;98622.03;4983955;28;20056;-91
2022/07/15 03:23:38;;;;;;;17.10;7.63;;;;;;;17.61;73.07;98611.69;5015748;28;19925;-90
2022/07/15 03:26:04;;;;;;;15.13;6.95;;;;;;;17.50;72.29;98574.81;5011711;28;20045;-90
2022/07/15 03:28:31;;;;;;;16.20;7.05;;;;;;;17.59;71.53;98594.66;4982667;28;20049;-89
2022/07/15 03:30:58;;;;;;;15.88;6.65;;;;;;;17.96;71.78;98629.06;5010627;28;20073;-89
2022/07/15 03:33:25;;;;;;;15.15;7.68;;;;;;;17.91;71.30;98619.13;5023791;28;20060;-91
2022/07/15 03:35:52;;;;;;;14.43;7.82;;;;;;;17.75;71.71;98600.00;5016970;28;20128;-89
2022/07/15 03:38:21;;;;;;;12.88;6.63;;;;;;;17.75;71.60;98597.22;4968731;28;20053;-90
2022/07/15 03:40:48;;;;;;;19.40;6.75;;;;;;;17.92;71.57;98623.50;4968839;28;20057;-87
2022/07/15 03:43:15;;;;;;;19.05;7.05;;;;;;;17.96;71.13;98627.09;5000733;28;20108;-89
2022/07/15 03:45:45;;;;;;;16.25;7.40;;;;;;;17.91;71.01;98610.81;4984148;28;20514;-88
2022/07/15 03:48:11;;;;;;;20.40;7.00;;;;;;;17.79;71.11;98592.56;4998895;28;20145;-90
2022/07/15 03:50:38;;;;;;;13.27;6.72;;;;;;;17.98;71.17;98618.41;4983605;28;20042;-87
2022/07/15 03:53:04;;;;;;;11.90;6.10;;;;;;;18.29;70.71;98644.81;5016346;28;20145;-90
2022/07/15 03:55:30;;;;;;;16.38;6.88;;;;;;;18.01;70.22;98598.28;5000191;28;20034;-92
2022/07/15 03:57:58;;;;;;;13.85;5.93;;;;;;;18.03;69.24;98599.50;4983504;28;20050;-93
2022/07/15 04:00:25;;;;;;;12.40;6.65;;;;;;;18.17;70.10;98603.59;4966716;28;20069;-91
2022/07/15 04:02:51;;;;;;;14.90;6.45;;;;;;;17.93;70.38;98561.47;4971241;28;20041;-90
2022/07/15 04:05:21;;;;;;;20.42;6.22;;;;;;;18.18;68.30;98581.09;4982198;28;20438;-90
2022/07/15 04:07:51;;;;;;;20.83;6.10;;;;;;;18.34;69.30;98602.94;4998407;28;20507;-89
2022/07/15 04:10:17;;;;;;;10.07;5.20;;;;;;;18.28;68.19;98602.50;5014353;28;20113;-89
2022/07/15 04:12:44;;;;;;;11.52;5.10;;;;;;;18.39;67.84;98612.88;4987831;28;20568;-90
2022/07/15 04:15:10;;;;;;;9.85;5.30;;;;;;;18.52;68.47;98614.97;4987919;28;20407;-89
2022/07/15 04:17:36;;;;;;;13.02;5.10;;;;;;;18.52;68.73;98611.41;4987289;28;20053;-87
2022/07/15 04:20:03;;;;;;;11.73;5.72;;;;;;;18.52;67.44;98614.16;4983764;28;20132;-89
2022/07/15 04:22:30;;;;;;;17.05;5.60;;;;;;;18.50;68.27;98622.06;4983832;28;20203;-90
2022/07/15 04:24:56;;;;;;;45.88;15.50;;;;;;;18.67;67.70;98632.47;5018109;28;20519;-89
2022/07/15 04:27:24;;;;;;;62.42;23.30;;;;;;;18.46;68.18;98610.97;4987080;28;20045;-89
2022/07/15 04:29:50;;;;;;;12.55;7.00;;;;;;;18.45;67.48;98630.72;5001981;28;20049;-88
2022/07/15 04:32:17;;;;;;;16.88;6.72;;;;;;;18.78;67.30;98682.44;5018380;28;20541;-92
2022/07/15 04:34:49;;;;;;;8.43;5.50;;;;;;;18.66;66.69;98668.84;5001405;28;20038;-90
2022/07/15 04:37:17;;;;;;;12.88;5.40;;;;;;;18.55;66.75;98669.56;5001877;28;20045;-90
2022/07/15 04:39:48;;;;;;;14.00;6.10;;;;;;;18.65;67.40;98662.53;5003636;28;20049;-88
2022/07/15 04:42:17;;;;;;;10.75;5.07;;;;;;;18.62;66.81;98656.97;4998969;28;20054;-88
2022/07/15 04:44:43;;;;;;;8.82;5.30;;;;;;;18.58;66.47;98658.91;4951481;28;20068;-93
2022/07/15 04:47:17;;;;;;;10.13;5.60;;;;;;;18.77;67.78;98686.38;5010600;28;20072;-89
2022/07/15 04:52:34;;;;;;;;;;;;;;;19.14;66.69;98715.94;4996236;28;20137;-91
2022/07/15 04:55:02;;;;;;;21.23;9.60;;;;;;;18.81;66.69;98676.13;5012316;28;20363;-93
2022/07/15 04:57:29;;;;;;;45.97;19.05;;;;;;;19.06;67.36;98712.31;4980949;28;20038;-88
2022/07/15 04:59:59;;;;;;;89.57;32.13;;;;;;;19.04;67.28;98688.94;4993087;28;20447;-90
2022/07/15 05:02:25;;;;;;;14.98;7.25;;;;;;;19.05;66.60;98696.09;5000351;28;20038;-87
2022/07/15 05:04:53;;;;;;;16.95;6.05;;;;;;;19.11;66.17;98703.66;5015848;28;20046;-90
2022/07/15 05:07:22;;;;;;;22.63;12.32;;;;;;;19.08;65.90;98692.56;5013079;28;20085;-87
2022/07/15 05:09:50;;;;;;;27.13;12.02;;;;;;;19.18;66.80;98702.91;4981559;28;20038;-86
2022/07/15 05:12:17;;;;;;;21.35;9.48;;;;;;;19.07;66.04;98669.56;5011429;28;20042;-89
2022/07/15 05:14:53;;;;;;;8.10;5.45;;;;;;;19.21;65.98;98680.78;5013341;28;20034;-87
2022/07/15 05:17:19;;;;;;;16.90;5.65;;;;;;;19.18;64.39;98677.97;4992061;28;20128;-89
2022/07/15 05:19:46;;;;;;;14.27;6.40;;;;;;;19.39;64.69;98691.16;5016969;28;20052;-88
2022/07/15 05:22:19;;;;;;;33.10;12.20;;;;;;;19.58;65.06;98701.16;4997465;28;20069;-89
2022/07/15 05:24:46;;;;;;;77.32;27.15;;;;;;;19.52;64.67;98672.22;4977484;28;20095;-93
2022/07/15 05:27:15;;;;;;;109.18;33.05;;;;;;;19.46;64.15;98644.84;4998893;28;20041;-92
2022/07/15 05:29:45;;;;;;;53.47;17.55;;;;;;;19.49;63.83;98641.31;4996644;28;20038;-89
2022/07/15 05:32:12;;;;;;;21.95;6.65;;;;;;;19.81;63.96;98687.84;5013235;28;20053;-90
2022/07/15 05:34:39;;;;;;;25.33;9.95;;;;;;;19.84;64.82;98670.41;5030999;28;20034;-88
2022/07/15 05:37:07;;;;;;;52.58;19.52;;;;;;;19.88;63.96;98676.75;4981197;28;20034;-88
2022/07/15 05:39:35;;;;;;;35.67;13.50;;;;;;;19.84;63.16;98659.31;5015277;28;20124;-91
2022/07/15 05:42:03;;;;;;;19.73;7.93;;;;;;;19.80;63.09;98639.09;4999708;28;20041;-87
2022/07/15 05:44:32;;;;;;;71.53;24.35;;;;;;;20.11;62.99;98664.56;5032782;28;20037;-89
2022/07/15 05:46:59;;;;;;;25.42;13.80;;;;;;;20.03;61.38;98649.06;4983311;28;20041;-87
2022/07/15 05:49:26;;;;;;;9.00;4.80;;;;;;;20.04;60.03;98667.31;5000490;28;20558;-89
2022/07/15 05:51:55;;;;;;;8.38;5.03;;;;;;;20.02;62.04;98641.94;5016467;28;20188;-89
2022/07/15 05:54:22;;;;;;;7.28;4.50;;;;;;;19.98;61.65;98638.34;5017269;28;20052;-90
2022/07/15 05:56:48;;;;;;;9.48;4.63;;;;;;;20.07;61.40;98636.00;4986212;28;20083;-91
2022/07/15 05:59:21;;;;;;;11.77;4.78;;;;;;;20.06;61.17;98634.41;4985691;28;20057;-90
2022/07/15 06:01:47;;;;;;;11.77;4.93;;;;;;;20.15;60.57;98646.72;4997872;28;20034;-90
2022/07/15 06:04:13;;;;;;;;;;;;;;;20.58;61.20;98707.88;5000629;28;20048;-87
2022/07/15 06:06:42;;;;;;;13.45;4.75;;;;;;;20.69;60.79;98709.88;4986576;28;19971;-87
2022/07/15 06:09:09;;;;;;;;;;;;;;;20.71;58.25;98713.84;5000823;28;20581;-87
2022/07/15 06:11:35;;;;;;;16.95;6.13;;;;;;;20.63;59.07;98695.59;5036072;28;19974;-89
2022/07/15 06:14:03;;;;;;;20.45;5.00;;;;;;;20.48;59.02;98677.31;5003753;28;20069;-88
2022/07/15 06:16:29;;;;;;;18.58;6.15;;;;;;;20.48;59.70;98663.41;4986819;28;20602;-88
2022/07/15 06:18:56;;;;;;;24.13;6.63;;;;;;;20.73;60.30;98680.09;5002568;28;20037;-90
2022/07/15 06:21:24;;;;;;;11.05;5.50;;;;;;;20.49;59.55;98628.91;5034148;28;20458;-89
2022/07/15 06:23:51;;;;;;;19.65;8.70;;;;;;;20.73;58.55;98636.50;5035409;28;20098;-90
2022/07/15 06:26:18;;;;;;;13.15;5.35;;;;;;;20.92;59.37;98668.59;5019484;28;20040;-90
2022/07/15 06:28:47;;;;;;;14.75;5.00;;;;;;;20.55;56.91;98614.25;5017520;28;20052;-89
2022/07/15 06:31:18;;;;;;;13.35;4.55;;;;;;;20.81;57.20;98642.81;5001393;28;20048;-88
2022/07/15 06:33:46;;;;;;;7.90;4.88;;;;;;;20.98;57.19;98678.13;5012037;28;20535;-88
2022/07/15 06:36:18;;;;;;;20.10;5.00;;;;;;;21.07;55.59;98680.50;5035918;28;20041;-90
2022/07/15 06:38:49;;;;;;;17.13;5.35;;;;;;;20.75;56.50;98611.88;4999967;28;20792;-91
2022/07/15 06:41:16;;;;;;;16.35;5.80;;;;;;;21.08;57.07;98648.72;5001996;28;20120;-87
2022/07/15 06:43:45;;;;;;;9.50;4.57;;;;;;;21.09;55.84;98645.56;4980088;28;20423;-88
2022/07/15 06:46:24;;;;;;;8.65;4.70;;;;;;;21.15;56.06;98665.41;5015803;28;20044;-86
2022/07/15 06:48:50;;;;;;;16.52;5.75;;;;;;;21.20;55.88;98665.00;5001226;28;20041;-86
2022/07/15 06:51:19;;;;;;;9.95;5.18;;;;;;;21.20;54.39;98645.53;4986689;28;20037;-90
2022/07/15 06:53:48;;;;;;;14.02;5.50;;;;;;;21.12;56.32;98643.97;5001396;28;20041;-90
2022/07/15 06:56:14;;;;;;;;;;;;;;;21.54;56.59;98697.91;4988024;28;20046;-90
2022/07/15 06:58:43;;;;;;;15.23;6.07;;;;;;;21.19;55.96;98652.31;5018701;28;19921;-93
2022/07/15 07:01:09;;;;;;;10.25;6.03;;;;;;;21.33;56.82;98679.28;5002951;28;20678;-91
2022/07/15 07:03:39;;;;;;;14.00;6.13;;;;;;;21.49;57.30;98693.56;5004846;28;20049;-90
2022/07/15 07:06:10;;;;;;;10.85;6.00;;;;;;;21.31;57.26;98681.66;4992031;28;20037;-94
2022/07/15 07:09:13;;;;;;;15.30;6.13;;;;;;;21.32;57.27;98649.88;4962810;28;20047;-93
2022/07/15 07:11:42;;;;;;;16.67;7.47;;;;;;;21.59;56.66;98691.94;5021420;28;20049;-91
2022/07/15 07:14:18;;;;;;;16.23;6.78;;;;;;;21.66;55.26;98700.25;5018528;28;20037;-90
2022/07/15 07:16:46;;;;;;;14.15;6.53;;;;;;;21.60;55.06;98689.97;5001508;28;20014;-91
2022/07/15 07:19:37;;;;;;;12.57;6.45;;;;;;;21.88;54.57;98722.44;5019375;28;20046;-92
2022/07/15 07:22:04;;;;;;;12.35;6.38;;;;;;;21.54;55.46;98661.75;4998802;28;20071;-88
2022/07/15 07:24:30;;;;;;;16.05;6.38;;;;;;;21.86;55.85;98695.03;5037297;28;20505;-92
2022/07/15 07:26:57;;;;;;;15.13;6.97;;;;;;;22.24;56.34;98715.53;5018909;28;20133;-94
2022/07/15 07:29:28;;;;;;;20.27;7.25;;;;;;;21.90;55.34;98651.28;4986200;28;20045;-91
2022/07/15 07:31:54;;;;;;;16.35;6.35;;;;;;;22.21;54.54;98707.97;5003163;28;20041;-89
2022/07/15 07:34:20;;;;;;;17.75;5.93;;;;;;;21.94;51.55;98687.44;5004751;28;20037;-92
2022/07/15 07:36:50;;;;;;;20.15;6.72;;;;;;;21.69;53.44;98684.75;5006683;28;20069;-90
2022/07/15 07:39:16;;;;;;;10.20;6.18;;;;;;;22.17;53.97;98746.19;5003809;28;20037;-91
2022/07/15 07:42:17;;;;;;;16.27;7.00;;;;;;;22.05;54.42;98725.16;5017695;28;20060;-92
2022/07/15 07:44:43;;;;;;;17.15;6.85;;;;;;;21.83;54.87;98681.13;5003044;28;20041;-91
2022/07/15 07:47:16;;;;;;;15.52;8.05;;;;;;;22.06;55.03;98725.94;4985012;28;20122;-92
2022/07/15 07:49:52;;;;;;;10.55;5.70;;;;;;;21.94;51.56;98673.50;4994092;28;20045;-89
2022/07/15 07:52:19;;;;;;;13.95;6.10;;;;;;;22.50;53.17;98739.25;4983977;28;20041;-91
2022/07/15 07:54:51;;;;;;;11.10;5.97;;;;;;;22.47;51.01;98703.06;4983478;28;20136;-90
2022/07/15 07:57:18;;;;;;;10.95;5.68;;;;;;;22.26;50.21;98690.09;5000928;28;20034;-91
2022/07/15 07:59:46;;;;;;;16.60;5.82;;;;;;;22.50;51.46;98705.81;4985193;28;20101;-89
2022/07/15 08:05:00;;;;;;;10.38;6.13;;;;;;;22.07;51.92;98676.63;5023395;28;19928;-92
2022/07/15 08:07:38;;;;;;;9.00;5.78;;;;;;;22.01;52.46;98677.03;4988524;28;20045;-92
2022/07/15 08:10:05;;;;;;;15.32;6.10;;;;;;;22.25;50.60;98722.72;4985699;28;20368;-90
2022/07/15 08:12:32;;;;;;;7.78;5.32;;;;;;;22.12;49.59;98687.31;4985083;28;20121;-89
2022/07/15 08:15:42;;;;;;;12.52;5.68;;;;;;;22.35;50.10;98703.53;5012858;28;20050;-94
2022/07/15 08:18:13;;;;;;;11.32;5.70;;;;;;;22.66;49.29;98724.81;4964741;28;20046;-92
2022/07/15 08:21:03;;;;;;;15.45;5.90;;;;;;;22.57;48.91;98696.63;4964530;28;20058;-93
2022/07/15 08:23:54;;;;;;;7.75;5.18;;;;;;;22.84;49.85;98729.47;4977608;22;20046;-93
2022/07/15 08:26:25;;;;;;;10.23;6.25;;;;;;;22.65;49.58;98689.00;4996364;22;20058;-93
2022/07/15 08:28:52;;;;;;;12.88;5.68;;;;;;;22.67;48.50;98692.19;4990179;28;20033;-91
2022/07/15 08:31:45;;;;;;;;;;;;;;;23.16;49.43;98752.34;5005325;28;20412;-93
2022/07/15 08:34:12;;;;;;;12.60;5.80;;;;;;;22.86;47.60;98719.50;4995036;28;19921;-92
2022/07/15 08:36:44;;;;;;;18.55;5.75;;;;;;;22.69;47.94;98701.72;4988175;28;20041;-93
2022/07/15 08:39:35;;;;;;;11.45;6.28;;;;;;;22.94;48.93;98707.13;4983846;28;20052;-92
2022/07/15 08:42:01;;;;;;;18.65;5.97;;;;;;;23.12;47.96;98706.97;4993907;28;20057;-90
2022/07/15 08:44:30;;;;;;;;;;;;;;;23.59;44.40;98774.25;4985415;28;20065;-92
2022/07/15 08:47:05;;;;;;;9.57;5.20;;;;;;;23.31;45.24;98727.91;4988420;28;19925;-92
2022/07/15 08:49:33;;;;;;;9.02;5.00;;;;;;;23.17;46.29;98712.09;5017477;28;20507;-91
2022/07/15 08:52:03;;;;;;;17.02;5.32;;;;;;;23.47;47.16;98732.91;4995872;28;20038;-92
2022/07/15 08:54:32;;;;;;;15.60;6.03;;;;;;;23.42;44.91;98725.00;4985663;28;20041;-91
2022/07/15 08:57:24;;;;;;;10.48;5.22;;;;;;;23.33;43.41;98731.06;4993583;28;20038;-90
2022/07/15 08:59:57;;;;;;;14.00;5.20;;;;;;;23.21;43.26;98731.56;5025043;28;20044;-93
2022/07/15 09:02:24;;;;;;;13.70;5.22;;;;;;;23.21;44.48;98721.25;4995322;28;20142;-95
2022/07/15 09:05:27;;;;;;;12.88;5.00;;;;;;;23.81;44.45;98793.63;4984624;28;20057;-92
2022/07/15 09:08:19;;;;;;;10.13;4.82;;;;;;;23.81;42.68;98785.25;5065555;22;20053;-95
2022/07/15 09:13:53;;;;;;;8.77;5.03;;;;;;;23.05;44.43;98709.03;5025588;28;20136;-94
2022/07/15 09:16:43;;;;;;;11.20;4.70;;;;;;;23.19;43.50;98756.31;5048928;28;20063;-92
2022/07/15 09:19:28;;;;;;;22.30;5.70;;;;;;;23.37;43.88;98767.28;5011917;22;20108;-90
2022/07/15 09:22:03;;;;;;;17.08;4.93;;;;;;;23.56;42.71;98786.25;4997736;28;20030;-88
2022/07/15 09:24:29;;;;;;;19.38;5.40;;;;;;;23.47;44.37;98741.28;4994581;28;20053;-88
2022/07/15 09:26:55;;;;;;;11.43;5.40;;;;;;;23.74;45.55;98738.66;4966704;28;20065;-95
2022/07/15 09:37:56;;;;;;;11.07;5.10;;;;;;;24.00;40.62;98767.84;4982364;28;20038;-89
2022/07/15 09:40:22;;;;;;;9.05;4.68;;;;;;;23.88;41.40;98746.06;5006914;28;20053;-90
2022/07/15 09:43:05;;;;;;;;;;;;;;;24.23;42.37;98778.34;4974668;28;20048;-90
2022/07/15 09:45:35;;;;;;;10.32;4.28;;;;;;;23.96;40.24;98730.81;4958619;28;19976;-87
2022/07/15 09:48:06;;;;;;;10.32;4.72;;;;;;;23.97;38.90;98754.72;4976119;28;20082;-91
2022/07/15 09:50:37;;;;;;;18.25;5.45;;;;;;;23.79;40.93;98698.34;4994616;28;20042;-92
2022/07/15 09:53:14;;;;;;;9.45;4.75;;;;;;;24.59;42.04;98772.31;4993968;28;20030;-91
2022/07/15 09:55:42;;;;;;;12.77;4.20;;;;;;;24.18;40.36;98714.59;4977764;28;20049;-90
2022/07/15 09:58:09;;;;;;;6.95;4.38;;;;;;;24.23;39.83;98716.91;4976990;28;20030;-90
2022/07/15 10:00:39;;;;;;;14.20;4.78;;;;;;;24.07;39.11;98747.44;4961735;28;20038;-89
2022/07/15 10:03:08;;;;;;;11.07;4.32;;;;;;;23.96;40.66;98749.56;4994367;28;20397;-92
2022/07/15 10:05:38;;;;;;;19.42;5.75;;;;;;;23.72;40.60;98726.31;4962447;28;20034;-90
2022/07/15 10:08:07;;;;;;;11.80;4.47;;;;;;;23.66;40.89;98725.94;4961897;28;20042;-89
2022/07/15 10:10:34;;;;;;;11.13;4.82;;;;;;;23.44;41.33;98744.91;4996264;28;20464;-91
2022/07/15 10:13:37;;;;;;;13.70;4.85;;;;;;;23.54;42.08;98771.94;4996099;28;20046;-89
2022/07/15 10:16:30;;;;;;;8.35;4.00;;;;;;;23.65;42.19;98755.84;4977544;28;20485;-91
2022/07/15 10:19:30;;;;;;;8.20;4.03;;;;;;;23.54;41.77;98740.41;4941225;28;20051;-93
2022/07/15 10:22:32;;;;;;;11.57;4.32;;;;;;;23.45;42.05;98750.09;4979732;28;20447;-89
2022/07/15 10:25:26;;;;;;;14.32;7.72;;;;;;;23.75;43.07;98792.47;4992915;28;20069;-88
2022/07/15 10:28:05;;;;;;;9.93;3.60;;;;;;;23.68;40.97;98771.03;4979624;28;20132;-90
2022/07/15 10:30:32;;;;;;;11.88;3.88;;;;;;;23.71;39.18;98780.53;4979243;28;20091;-87
2022/07/15 10:33:04;;;;;;;;;;;;;;;23.68;41.85;98796.91;4990452;28;20108;-89
2022/07/15 10:35:47;;;;;;;15.07;5.15;;;;;;;23.53;41.19;98803.00;4990780;28;19921;-89
2022/07/15 10:38:31;;;;;;;12.10;5.20;;;;;;;23.21;41.01;98760.28;4977399;28;20132;-92
2022/07/15 10:41:14;;;;;;;30.58;5.90;;;;;;;23.79;43.53;98794.00;4961106;28;20050;-89
2022/07/15 10:43:46;;;;;;;16.42;4.28;;;;;;;24.09;41.84;98793.28;4993885;28;20046;-91
2022/07/15 10:46:36;;;;;;;11.55;4.15;;;;;;;23.91;42.28;98759.22;4958365;28;20030;-91
2022/07/15 10:49:02;;;;;;;16.25;4.13;;;;;;;24.27;43.12;98792.25;4898725;29;20050;-88
2022/07/15 10:51:37;;;;;;;6.28;4.20;;;;;;;24.49;43.26;98790.03;4907845;29;20044;-89
2022/07/15 10:54:05;;;;;;;16.60;4.18;;;;;;;24.61;43.07;98773.47;4911179;29;20142;-91
2022/07/15 10:56:34;;;;;;;10.23;4.70;;;;;;;24.73;40.30;98799.25;4883305;29;20032;-90
2022/07/15 10:59:30;;;;;;;12.02;3.92;;;;;;;24.19;40.31;98785.19;4914442;29;20465;-88
2022/07/15 11:02:00;;;;;;;7.68;4.00;;;;;;;24.15;41.16;98810.38;4933553;29;20984;-91
2022/07/15 11:04:29;;;;;;;13.50;3.63;;;;;;;23.98;41.56;98789.81;4933553;29;20146;-90
2022/07/15 11:07:03;;;;;;;10.27;4.03;;;;;;;24.38;39.21;98812.50;4935499;29;20087;-90
2022/07/15 11:09:50;;;;;;;14.07;4.13;;;;;;;24.59;40.41;98806.63;4903140;29;20117;-88
2022/07/15 11:12:19;;;;;;;10.30;3.63;;;;;;;24.51;40.40;98762.47;4915817;29;20138;-90
2022/07/15 11:14:55;;;;;;;12.93;3.72;;;;;;;25.02;41.74;98805.22;4919701;29;20091;-91
2022/07/15 11:17:24;;;;;;;;;;;;;;;25.27;40.58;98810.47;4902623;29;20044;-90
2022/07/15 11:19:53;;;;;;;10.55;4.25;;;;;;;25.09;38.06;98760.38;4926287;29;19922;-91
2022/07/15 11:22:24;;;;;;;28.42;4.00;;;;;;;24.70;37.94;98772.16;4937446;29;20121;-91
2022/07/15 11:24:52;;;;;;;9.82;3.90;;;;;;;24.68;40.36;98797.75;4929019;28;20047;-92
2022/07/15 11:27:20;;;;;;;15.25;3.78;;;;;;;24.96;39.43;98798.53;4923191;28;20544;-90
2022/07/15 11:30:03;;;;;;;9.50;3.97;;;;;;;24.69;38.99;98774.16;4940462;28;20050;-91
2022/07/15 11:32:39;;;;;;;16.13;3.85;;;;;;;24.69;39.50;98756.59;4972704;28;20094;-89
2022/07/15 11:35:07;;;;;;;9.68;4.57;;;;;;;24.88;38.31;98763.50;4941361;28;20043;-89
2022/07/15 11:37:36;;;;;;;14.25;5.07;;;;;;;25.29;37.56;98810.81;4969033;28;20525;-88
2022/07/15 11:45:46;;;;;;;10.65;3.58;;;;;;;24.85;38.18;98762.34;4974984;28;20038;-88
2022/07/15 11:48:13;;;;;;;8.07;3.83;;;;;;;25.12;38.09;98787.53;4976279;28;20050;-90
2022/07/15 11:51:01;;;;;;;7.95;3.50;;;;;;;24.85;36.01;98746.38;4960760;28;20061;-88
2022/07/15 11:53:28;;;;;;;11.05;5.00;;;;;;;25.01;37.81;98798.84;4984558;28;20411;-88
2022/07/15 11:55:58;;;;;;;12.05;4.22;;;;;;;24.74;35.78;98773.69;4981156;28;20041;-92
2022/07/15 11:58:39;;;;;;;6.70;3.72;;;;;;;24.64;35.88;98755.09;4973906;28;20039;-90
2022/07/15 12:01:15;;;;;;;10.95;3.95;;;;;;;24.87;35.34;98768.31;4987317;28;20035;-90
2022/07/15 12:03:49;;;;;;;13.07;3.78;;;;;;;25.25;36.51;98801.69;4978252;28;20114;-90
2022/07/15 12:06:17;;;;;;;12.23;4.53;;;;;;;25.00;37.14;98794.47;4977840;28;20050;-93
2022/07/15 12:08:53;;;;;;;5.45;3.53;;;;;;;24.64;37.37;98787.84;4953361;28;20043;-90
2022/07/15 12:11:28;;;;;;;10.55;4.00;;;;;;;24.76;37.13;98823.59;4964449;28;20043;-87